createdAt,value
2023-05-05T00:01:06.141Z,5.97
2023-05-05T00:03:33.367Z,3.78
2023-05-05T00:05:59.798Z,6.55
2023-05-05T00:08:26.183Z,3.75
2023-05-05T00:10:53.396Z,3.60
2023-05-05T00:13:20.593Z,3.85
2023-05-05T00:15:49.180Z,4.00
2023-05-05T00:18:16.643Z,4.10
2023-05-05T00:20:47.141Z,4.65
2023-05-05T00:23:14.649Z,4.07
2023-05-05T00:25:41.015Z,4.32
2023-05-05T00:28:07.462Z,5.25
2023-05-05T00:30:34.510Z,3.65
2023-05-05T00:33:01.410Z,4.22
2023-05-05T00:35:27.845Z,4.07
2023-05-05T00:37:54.948Z,4.93
2023-05-05T00:40:21.372Z,4.25
2023-05-05T00:42:50.650Z,3.50
2023-05-05T00:45:18.256Z,5.22
2023-05-05T00:48:02.883Z,5.32
2023-05-05T00:53:01.005Z,4.38
2023-05-05T00:55:30.150Z,3.67
2023-05-05T00:57:57.833Z,3.75
2023-05-05T01:00:24.426Z,4.35
2023-05-05T01:02:52.155Z,3.58
2023-05-05T01:05:19.694Z,4.55
2023-05-05T01:08:03.914Z,3.78
2023-05-05T01:10:38.705Z,4.50
2023-05-05T01:13:43.052Z,3.40
2023-05-05T01:16:16.645Z,3.60
2023-05-05T01:18:54.496Z,5.93
2023-05-05T01:21:42.334Z,4.30
2023-05-05T01:24:19.329Z,3.35
2023-05-05T01:27:00.388Z,3.42
2023-05-05T01:29:35.719Z,4.35
2023-05-05T01:32:10.759Z,3.58
2023-05-05T01:34:41.641Z,3.75
2023-05-05T01:37:18.565Z,3.67
2023-05-05T01:39:46.862Z,5.78
2023-05-05T01:42:14.909Z,3.60
2023-05-05T01:44:43.337Z,3.60
2023-05-05T01:47:12.373Z,3.42
2023-05-05T01:49:38.971Z,4.25
2023-05-05T01:52:06.013Z,3.97
2023-05-05T01:54:33.589Z,3.92
2023-05-05T01:57:03.391Z,5.30
2023-05-05T01:59:29.772Z,3.70
2023-05-05T02:01:57.403Z,3.72
2023-05-05T02:04:24.212Z,5.43
2023-05-05T02:06:53.042Z,4.68
2023-05-05T02:09:20.871Z,4.18
2023-05-05T02:11:47.432Z,4.35
2023-05-05T02:14:14.185Z,5.00
2023-05-05T02:16:41.337Z,4.47
2023-05-05T02:19:08.605Z,4.50
2023-05-05T02:21:35.032Z,3.97
2023-05-05T02:24:01.776Z,3.80
2023-05-05T02:26:29.692Z,4.20
2023-05-05T02:29:34.627Z,4.25
2023-05-05T02:32:05.385Z,3.85
2023-05-05T02:34:36.447Z,3.65
2023-05-05T02:37:05.464Z,3.67
2023-05-05T02:39:35.696Z,3.88
2023-05-05T02:42:05.653Z,3.97
2023-05-05T02:44:32.967Z,4.55
2023-05-05T02:46:59.401Z,4.25
2023-05-05T02:49:25.865Z,4.20
2023-05-05T02:51:52.258Z,4.05
2023-05-05T02:54:19.236Z,4.80
2023-05-05T02:56:51.742Z,3.95
2023-05-05T02:59:26.381Z,3.85
2023-05-05T03:02:30.825Z,3.65
2023-05-05T03:05:04.623Z,6.23
2023-05-05T03:07:34.726Z,6.10
2023-05-05T03:10:09.213Z,5.10
2023-05-05T03:12:39.427Z,4.93
2023-05-05T03:15:07.472Z,5.47
2023-05-05T03:17:34.894Z,3.30
2023-05-05T03:20:04.852Z,4.38
2023-05-05T03:22:31.303Z,4.40
2023-05-05T03:24:57.680Z,4.78
2023-05-05T03:27:24.007Z,3.70
2023-05-05T03:29:50.394Z,4.32
2023-05-05T03:32:16.894Z,4.18
2023-05-05T03:34:43.253Z,4.10
2023-05-05T03:37:09.609Z,4.63
2023-05-05T03:39:36.004Z,4.13
2023-05-05T03:42:02.445Z,4.38
2023-05-05T03:44:28.776Z,5.80
2023-05-05T03:46:55.135Z,4.57
2023-05-05T03:49:21.544Z,4.22
2023-05-05T03:51:47.917Z,4.63
2023-05-05T03:54:14.328Z,5.53
2023-05-05T03:56:40.857Z,4.78
2023-05-05T03:59:08.564Z,4.35
2023-05-05T04:01:35.607Z,4.38
2023-05-05T04:04:02.158Z,4.70
2023-05-05T04:06:28.542Z,5.55
2023-05-05T04:08:54.908Z,5.82
2023-05-05T04:11:21.899Z,5.25
2023-05-05T04:13:49.816Z,6.10
2023-05-05T04:16:16.532Z,4.93
2023-05-05T04:18:42.935Z,6.00
2023-05-05T04:21:09.304Z,4.18
2023-05-05T04:23:35.658Z,4.95
2023-05-05T04:26:02.002Z,5.03
2023-05-05T04:28:28.338Z,5.03
2023-05-05T04:30:54.905Z,5.03
2023-05-05T04:33:21.312Z,5.50
2023-05-05T04:35:47.674Z,4.70
2023-05-05T04:38:14.085Z,5.18
2023-05-05T04:40:41.157Z,4.97
2023-05-05T04:43:08.300Z,5.68
2023-05-05T04:45:34.659Z,4.90
2023-05-05T04:48:01.661Z,4.40
2023-05-05T04:50:28.247Z,4.78
2023-05-05T04:52:54.879Z,4.28
2023-05-05T04:55:21.487Z,4.50
2023-05-05T04:57:47.862Z,4.38
2023-05-05T05:00:14.515Z,5.15
2023-05-05T05:02:41.461Z,5.97
2023-05-05T05:05:08.386Z,6.07
2023-05-05T05:07:34.750Z,6.07
2023-05-05T05:10:01.137Z,5.38
2023-05-05T05:12:27.687Z,5.03
2023-05-05T05:14:54.046Z,5.18
2023-05-05T05:17:21.281Z,5.45
2023-05-05T05:19:47.668Z,4.88
2023-05-05T05:22:14.073Z,6.75
2023-05-05T05:24:40.552Z,7.85
2023-05-05T05:27:10.146Z,5.18
2023-05-05T05:29:36.778Z,6.05
2023-05-05T05:32:03.228Z,7.05
2023-05-05T05:34:29.674Z,8.45
2023-05-05T05:36:55.989Z,6.07
2023-05-05T05:39:22.336Z,5.20
2023-05-05T05:41:48.740Z,8.05
2023-05-05T05:44:15.216Z,6.80
2023-05-05T05:46:41.661Z,8.55
2023-05-05T05:49:08.086Z,6.57
2023-05-05T05:51:34.445Z,5.97
2023-05-05T05:54:00.812Z,7.03
2023-05-05T05:56:27.169Z,9.48
2023-05-05T05:58:53.603Z,8.95
2023-05-05T06:01:20.018Z,6.20
2023-05-05T06:03:46.630Z,7.55
2023-05-05T06:06:13.219Z,6.20
2023-05-05T06:08:39.625Z,6.25
2023-05-05T06:11:06.652Z,8.00
2023-05-05T06:13:33.068Z,8.95
2023-05-05T06:15:59.727Z,6.22
2023-05-05T06:18:26.208Z,6.50
2023-05-05T06:20:52.699Z,6.50
2023-05-05T06:23:19.056Z,6.47
2023-05-05T06:25:45.489Z,8.80
2023-05-05T06:28:12.067Z,7.18
2023-05-05T06:30:38.502Z,7.38
2023-05-05T06:33:04.954Z,8.00
2023-05-05T06:35:31.957Z,6.75
2023-05-05T06:37:58.308Z,9.88
2023-05-05T06:40:24.672Z,10.40
2023-05-05T06:42:51.000Z,13.57
2023-05-05T06:45:42.426Z,9.80
2023-05-05T06:48:10.054Z,8.32
2023-05-05T06:50:36.433Z,9.82
2023-05-05T06:53:02.780Z,7.82
2023-05-05T06:55:29.157Z,11.82
2023-05-05T06:57:55.901Z,18.40
2023-05-05T07:00:23.003Z,15.30
2023-05-05T07:02:49.819Z,10.13
2023-05-05T07:05:16.339Z,11.13
2023-05-05T07:07:53.523Z,9.73
2023-05-05T07:10:21.330Z,11.50
2023-05-05T07:12:47.726Z,10.30
2023-05-05T07:15:26.615Z,12.68
2023-05-05T07:17:54.917Z,9.88
2023-05-05T07:20:21.304Z,11.52
2023-05-05T07:22:47.677Z,12.85
2023-05-05T07:25:14.021Z,10.73
2023-05-05T07:27:40.685Z,13.88
2023-05-05T07:30:12.422Z,17.73
2023-05-05T07:32:40.807Z,12.73
2023-05-05T07:35:07.363Z,17.10
2023-05-05T07:37:33.750Z,12.52
2023-05-05T07:40:00.132Z,11.95
2023-05-05T07:42:26.496Z,13.77
2023-05-05T07:44:52.955Z,12.15
2023-05-05T07:47:19.327Z,15.10
2023-05-05T07:49:45.679Z,12.55
2023-05-05T07:52:12.221Z,17.38
2023-05-05T07:54:38.633Z,13.50
2023-05-05T07:57:05.010Z,13.80
2023-05-05T07:59:31.430Z,14.90
2023-05-05T08:01:57.786Z,10.43
2023-05-05T08:04:24.269Z,14.80
2023-05-05T08:06:50.682Z,14.07
2023-05-05T08:09:17.018Z,13.02
2023-05-05T08:11:43.384Z,17.25
2023-05-05T08:14:09.903Z,10.25
2023-05-05T08:16:36.474Z,9.07
2023-05-05T08:19:04.110Z,9.18
2023-05-05T08:21:31.689Z,8.25
2023-05-05T08:23:58.128Z,9.23
2023-05-05T08:26:24.474Z,8.10
2023-05-05T08:28:54.922Z,10.80
2023-05-05T08:31:21.931Z,10.18
2023-05-05T08:33:48.372Z,7.75
2023-05-05T08:36:14.732Z,8.50
2023-05-05T08:38:41.065Z,7.93
2023-05-05T08:41:09.799Z,10.45
2023-05-05T08:43:36.472Z,11.00
2023-05-05T08:46:03.355Z,9.32
2023-05-05T08:48:30.019Z,10.02
2023-05-05T08:51:00.311Z,8.23
2023-05-05T08:53:30.517Z,12.35
2023-05-05T08:55:59.178Z,6.88
2023-05-05T08:58:28.266Z,6.68
2023-05-05T09:00:56.345Z,6.53
2023-05-05T09:03:23.120Z,8.60
2023-05-05T09:05:50.946Z,6.68
2023-05-05T09:08:17.818Z,7.45
2023-05-05T09:10:44.585Z,7.13
2023-05-05T09:13:11.111Z,8.77
2023-05-05T09:15:38.966Z,8.10
2023-05-05T09:18:08.772Z,6.95
2023-05-05T09:20:37.091Z,6.70
2023-05-05T09:23:14.389Z,6.05
2023-05-05T09:25:42.655Z,7.53
2023-05-05T09:28:14.246Z,9.50
2023-05-05T09:30:43.889Z,11.02
2023-05-05T09:33:10.575Z,6.60
2023-05-05T09:35:57.315Z,8.68
2023-05-05T09:38:24.821Z,5.25
2023-05-05T09:40:54.589Z,6.10
2023-05-05T09:43:22.173Z,5.60
2023-05-05T09:45:49.466Z,10.20
2023-05-05T09:48:32.158Z,6.05
2023-05-05T09:50:59.673Z,8.68
2023-05-05T09:53:26.576Z,6.20
2023-05-05T09:55:57.207Z,6.40
2023-05-05T09:58:25.724Z,6.43
2023-05-05T10:00:53.215Z,5.60
2023-05-05T10:03:20.006Z,5.13
2023-05-05T10:05:51.916Z,3.67
2023-05-05T10:08:20.388Z,3.78
2023-05-05T10:10:54.613Z,4.22
2023-05-05T10:15:51.316Z,3.67
2023-05-05T10:18:25.091Z,4.55
2023-05-05T10:21:03.345Z,5.72
2023-05-05T10:23:48.378Z,4.93
2023-05-05T10:26:15.712Z,4.22
2023-05-05T10:28:50.818Z,3.83
2023-05-05T10:31:25.156Z,5.50
2023-05-05T10:33:57.915Z,4.65
2023-05-05T10:36:28.179Z,4.40
2023-05-05T10:38:58.710Z,4.43
2023-05-05T10:41:26.707Z,4.43
2023-05-05T10:43:56.447Z,2.65
2023-05-05T10:46:23.477Z,3.58
2023-05-05T10:48:57.085Z,3.97
2023-05-05T10:51:40.540Z,3.97
2023-05-05T10:54:34.625Z,3.08
2023-05-05T10:57:05.242Z,1.65
2023-05-05T10:59:37.596Z,2.08
2023-05-05T11:02:21.498Z,1.92
2023-05-05T11:05:26.609Z,2.20
2023-05-05T11:10:20.910Z,4.05
2023-05-05T11:13:00.209Z,3.15
2023-05-05T11:15:26.741Z,1.42
2023-05-05T11:17:54.764Z,1.60
2023-05-05T11:20:45.238Z,1.30
2023-05-05T11:23:12.231Z,3.67
2023-05-05T11:25:40.998Z,2.30
2023-05-05T11:28:12.050Z,2.40
2023-05-05T11:30:57.825Z,1.27
2023-05-05T11:33:30.498Z,2.03
2023-05-05T11:35:58.647Z,1.42
2023-05-05T11:38:41.067Z,1.25
2023-05-05T11:41:10.258Z,1.17
2023-05-05T11:43:36.688Z,3.05
2023-05-05T11:46:13.385Z,1.08
2023-05-05T11:48:52.058Z,2.53
2023-05-05T11:51:18.874Z,1.42
2023-05-05T11:53:49.220Z,3.45
2023-05-05T11:56:20.388Z,3.28
2023-05-05T11:58:47.910Z,2.33
2023-05-05T12:01:14.622Z,2.78
2023-05-05T12:03:41.218Z,2.38
2023-05-05T12:06:08.748Z,1.55
2023-05-05T12:08:38.572Z,2.65
2023-05-05T12:11:07.137Z,2.65
2023-05-05T12:13:33.718Z,2.83
2023-05-05T12:16:13.939Z,1.83
2023-05-05T12:18:40.676Z,1.13
2023-05-05T12:21:20.053Z,2.75
2023-05-05T12:23:46.820Z,1.17
2023-05-05T12:26:26.269Z,2.97
2023-05-05T12:28:52.725Z,6.97
2023-05-05T12:31:19.917Z,2.53
2023-05-05T12:33:46.368Z,3.00
2023-05-05T12:36:13.410Z,2.05
2023-05-05T12:38:39.787Z,2.88
2023-05-05T12:41:06.131Z,2.50
2023-05-05T12:43:34.247Z,2.05
2023-05-05T12:46:04.618Z,3.40
2023-05-05T12:48:31.553Z,2.30
2023-05-05T12:51:19.747Z,1.63
2023-05-05T12:53:47.559Z,1.45
2023-05-05T12:56:35.125Z,2.58
2023-05-05T12:59:05.884Z,3.55
2023-05-05T13:01:32.613Z,1.10
2023-05-05T13:04:14.152Z,2.17
2023-05-05T13:06:45.291Z,4.30
2023-05-05T13:09:26.568Z,1.70
2023-05-05T13:11:54.619Z,0.77
2023-05-05T13:14:21.356Z,2.00
2023-05-05T13:16:47.812Z,1.30
2023-05-05T13:19:14.201Z,1.15
2023-05-05T13:21:40.716Z,1.00
2023-05-05T13:24:19.797Z,1.33
2023-05-05T13:26:52.495Z,1.50
2023-05-05T13:29:18.904Z,3.55
2023-05-05T13:31:45.807Z,2.53
2023-05-05T13:34:12.304Z,1.38
2023-05-05T13:36:38.732Z,3.60
2023-05-05T13:39:05.228Z,0.98
2023-05-05T13:41:32.137Z,2.78
2023-05-05T13:43:58.539Z,1.40
2023-05-05T13:46:25.010Z,3.20
2023-05-05T13:48:55.961Z,1.55
2023-05-05T13:51:24.461Z,1.70
2023-05-05T13:53:50.877Z,2.28
2023-05-05T13:56:19.061Z,0.80
2023-05-05T13:58:46.255Z,1.27
2023-05-05T14:01:12.747Z,3.10
2023-05-05T14:03:39.698Z,1.33
2023-05-05T14:06:07.516Z,1.10
2023-05-05T14:08:33.986Z,0.85
2023-05-05T14:11:00.345Z,1.67
2023-05-05T14:13:28.548Z,2.40
2023-05-05T14:15:55.116Z,1.65
2023-05-05T14:18:22.717Z,2.05
2023-05-05T14:20:49.137Z,3.53
2023-05-05T14:23:15.518Z,1.40
2023-05-05T14:25:41.843Z,2.13
2023-05-05T14:28:08.331Z,3.13
2023-05-05T14:30:34.781Z,2.70
2023-05-05T14:33:01.228Z,2.55
2023-05-05T14:35:27.779Z,3.70
2023-05-05T14:37:54.123Z,2.30
2023-05-05T14:40:20.515Z,3.22
2023-05-05T14:42:46.882Z,2.33
2023-05-05T14:45:13.219Z,1.35
2023-05-05T14:47:40.627Z,2.08
2023-05-05T14:50:09.608Z,1.08
2023-05-05T14:52:40.097Z,1.05
2023-05-05T14:55:07.509Z,1.83
2023-05-05T14:57:34.381Z,2.80
2023-05-05T15:00:00.761Z,1.42
2023-05-05T15:02:27.255Z,1.23
2023-05-05T15:04:53.685Z,0.90
2023-05-05T15:07:21.244Z,1.35
2023-05-05T15:09:47.616Z,4.32
2023-05-05T15:12:13.955Z,2.63
2023-05-05T15:14:40.800Z,6.50
2023-05-05T15:17:07.304Z,3.03
2023-05-05T15:19:33.664Z,3.78
2023-05-05T15:22:00.098Z,4.78
2023-05-05T15:24:26.492Z,7.25
2023-05-05T15:26:52.862Z,5.80
2023-05-05T15:29:19.300Z,2.47
2023-05-05T15:31:45.858Z,4.10
2023-05-05T15:34:12.317Z,2.25
2023-05-05T15:36:38.670Z,2.85
2023-05-05T15:39:05.141Z,5.32
2023-05-05T15:41:33.894Z,1.70
2023-05-05T15:44:00.755Z,1.92
2023-05-05T15:46:27.308Z,5.13
2023-05-05T15:48:53.708Z,3.90
2023-05-05T15:51:20.073Z,2.15
2023-05-05T15:53:46.945Z,6.50
2023-05-05T15:56:13.398Z,2.05
2023-05-05T15:58:39.748Z,2.22
2023-05-05T16:01:06.213Z,1.48
2023-05-05T16:03:32.708Z,2.25
2023-05-05T16:05:59.214Z,2.63
2023-05-05T16:08:25.634Z,2.17
2023-05-05T16:10:52.537Z,3.28
2023-05-05T16:13:19.014Z,3.85
2023-05-05T16:15:46.150Z,2.78
2023-05-05T16:18:14.470Z,2.80
2023-05-05T16:20:41.186Z,5.25
2023-05-05T16:23:09.502Z,2.55
2023-05-05T16:25:35.928Z,2.90
2023-05-05T16:28:02.349Z,4.20
2023-05-05T16:30:29.197Z,2.33
2023-05-05T16:32:55.666Z,4.13
2023-05-05T16:35:22.920Z,3.50
2023-05-05T16:37:49.314Z,2.30
2023-05-05T16:40:15.861Z,2.80
2023-05-05T16:42:44.747Z,3.60
2023-05-05T16:45:11.527Z,1.98
2023-05-05T16:47:38.471Z,2.58
2023-05-05T16:50:05.671Z,3.58
2023-05-05T16:52:32.334Z,3.47
2023-05-05T16:54:58.807Z,2.47
2023-05-05T16:57:25.249Z,3.88
2023-05-05T16:59:54.938Z,2.55
2023-05-05T17:02:21.803Z,10.05
2023-05-05T17:04:48.271Z,3.20
2023-05-05T17:07:14.613Z,42.75
2023-05-05T17:09:40.984Z,48.20
2023-05-05T17:12:10.829Z,49.90
2023-05-05T17:14:37.357Z,19.23
2023-05-05T17:17:03.790Z,7.93
2023-05-05T17:19:30.548Z,9.57
2023-05-05T17:21:57.001Z,5.35
2023-05-05T17:24:24.002Z,14.20
2023-05-05T17:26:50.520Z,9.52
2023-05-05T17:29:20.132Z,6.35
2023-05-05T17:31:46.819Z,5.25
2023-05-05T17:34:13.277Z,8.60
2023-05-05T17:36:39.673Z,3.95
2023-05-05T17:39:06.124Z,6.30
2023-05-05T17:41:32.561Z,5.45
2023-05-05T17:44:00.521Z,5.53
2023-05-05T17:46:27.336Z,2.97
2023-05-05T17:48:54.200Z,2.80
2023-05-05T17:51:20.601Z,3.42
2023-05-05T17:53:47.259Z,3.38
2023-05-05T17:56:13.716Z,3.72
2023-05-05T17:58:40.079Z,3.67
2023-05-05T18:01:06.704Z,3.63
2023-05-05T18:03:33.375Z,3.90
2023-05-05T18:05:59.807Z,4.95
2023-05-05T18:08:26.930Z,3.97
2023-05-05T18:10:54.023Z,3.25
2023-05-05T18:13:21.303Z,1.98
2023-05-05T18:15:47.837Z,2.58
2023-05-05T18:18:14.375Z,3.30
2023-05-05T18:20:40.966Z,3.50
2023-05-05T18:23:07.351Z,3.15
2023-05-05T18:25:33.749Z,2.47
2023-05-05T18:28:00.165Z,3.67
2023-05-05T18:30:26.604Z,4.32
2023-05-05T18:32:53.068Z,4.53
2023-05-05T18:35:19.494Z,2.05
2023-05-05T18:37:45.876Z,7.78
2023-05-05T18:40:12.596Z,5.00
2023-05-05T18:42:38.986Z,4.22
2023-05-05T18:45:05.837Z,3.40
2023-05-05T18:47:33.580Z,6.43
2023-05-05T18:50:00.073Z,3.42
2023-05-05T18:52:27.295Z,2.95
2023-05-05T18:54:53.644Z,4.53
2023-05-05T18:57:20.105Z,5.50
2023-05-05T18:59:46.559Z,1.98
2023-05-05T19:02:12.949Z,3.33
2023-05-05T19:04:41.143Z,3.75
2023-05-05T19:07:07.669Z,4.35
2023-05-05T19:09:34.015Z,5.68
2023-05-05T19:12:02.293Z,3.22
2023-05-05T19:14:29.065Z,3.55
2023-05-05T19:16:58.941Z,3.13
2023-05-05T19:19:25.505Z,4.70
2023-05-05T19:21:51.839Z,3.40
2023-05-05T19:24:18.265Z,4.18
2023-05-05T19:26:44.665Z,5.68
2023-05-05T19:29:12.598Z,6.13
2023-05-05T19:31:39.076Z,6.05
2023-05-05T19:34:05.978Z,4.82
2023-05-05T19:36:33.218Z,5.20
2023-05-05T19:39:00.522Z,13.48
2023-05-05T19:41:27.208Z,12.60
2023-05-05T19:43:53.621Z,21.83
2023-05-05T19:46:20.120Z,12.77
2023-05-05T19:48:46.557Z,11.02
2023-05-05T19:51:13.176Z,13.95
2023-05-05T19:53:42.808Z,10.75
2023-05-05T19:56:09.999Z,11.52
2023-05-05T19:58:59.156Z,11.07
2023-05-05T20:01:26.710Z,9.82
2023-05-05T20:03:54.706Z,7.53
2023-05-05T20:06:21.715Z,8.38
2023-05-05T20:08:48.180Z,6.78
2023-05-05T20:11:15.741Z,5.93
2023-05-05T20:13:43.003Z,5.95
2023-05-05T20:16:09.845Z,14.07
2023-05-05T20:18:36.278Z,4.28
2023-05-05T20:21:02.911Z,5.00
2023-05-05T20:23:29.296Z,6.40
2023-05-05T20:25:56.544Z,4.97
2023-05-05T20:28:23.050Z,3.88
2023-05-05T20:30:49.422Z,5.75
2023-05-05T20:33:15.770Z,3.08
2023-05-05T20:35:42.152Z,6.18
2023-05-05T20:38:09.587Z,3.90
2023-05-05T20:40:36.312Z,4.53
2023-05-05T20:43:02.965Z,4.65
2023-05-05T20:45:31.619Z,5.70
2023-05-05T20:47:59.787Z,2.95
2023-05-05T20:50:26.308Z,2.60
2023-05-05T20:52:52.737Z,5.03
2023-05-05T20:55:19.103Z,3.33
2023-05-05T20:57:45.880Z,3.83
2023-05-05T21:00:12.484Z,2.60
2023-05-05T21:02:39.060Z,3.35
2023-05-05T21:05:06.180Z,3.50
2023-05-05T21:07:35.565Z,1.92
2023-05-05T21:10:02.446Z,4.13
2023-05-05T21:12:29.293Z,1.67
2023-05-05T21:14:59.341Z,3.05
2023-05-05T21:17:26.621Z,2.88
2023-05-05T21:19:53.493Z,2.17
2023-05-05T21:22:21.564Z,1.83
2023-05-05T21:24:48.155Z,1.58
2023-05-05T21:27:14.594Z,3.97
2023-05-05T21:29:41.074Z,2.33
2023-05-05T21:32:08.390Z,1.52
2023-05-05T21:34:34.841Z,3.47
2023-05-05T21:37:01.289Z,1.75
2023-05-05T21:39:28.176Z,3.50
2023-05-05T21:41:54.552Z,3.47
2023-05-05T21:44:20.986Z,3.17
2023-05-05T21:46:47.481Z,5.93
2023-05-05T21:49:15.523Z,3.92
2023-05-05T21:51:42.693Z,3.50
2023-05-05T21:54:09.198Z,4.30
2023-05-05T21:56:36.520Z,3.22
2023-05-05T21:59:04.007Z,3.38
2023-05-05T22:01:30.383Z,2.55
2023-05-05T22:03:56.919Z,2.30
2023-05-05T22:06:23.387Z,2.45
2023-05-05T22:08:50.248Z,3.70
2023-05-05T22:11:18.196Z,3.40
2023-05-05T22:13:45.889Z,2.45
2023-05-05T22:16:12.765Z,3.40
2023-05-05T22:18:39.218Z,1.83
2023-05-05T22:21:05.794Z,2.10
2023-05-05T22:23:32.198Z,2.65
2023-05-05T22:25:58.649Z,3.70
2023-05-05T22:28:25.022Z,3.20
2023-05-05T22:30:51.487Z,3.05
2023-05-05T22:33:17.932Z,3.05
2023-05-05T22:35:44.418Z,2.67
2023-05-05T22:38:10.831Z,3.05
2023-05-05T22:40:37.191Z,8.02
2023-05-05T22:43:03.639Z,5.65
2023-05-05T22:45:30.079Z,4.13
2023-05-05T22:47:56.752Z,1.92
2023-05-05T22:50:23.429Z,2.63
2023-05-05T22:52:49.865Z,5.93
2023-05-05T22:55:16.276Z,1.35
2023-05-05T22:57:42.718Z,4.75
2023-05-05T23:00:10.617Z,2.38
2023-05-05T23:02:37.803Z,1.65
2023-05-05T23:05:04.539Z,2.10
2023-05-05T23:07:30.970Z,2.95
2023-05-05T23:09:57.344Z,1.80
2023-05-05T23:12:23.734Z,3.38
2023-05-05T23:14:50.117Z,3.97
2023-05-05T23:17:16.784Z,7.00
2023-05-05T23:19:43.305Z,2.63
2023-05-05T23:22:09.756Z,2.75
2023-05-05T23:24:36.121Z,2.60
2023-05-05T23:27:02.999Z,1.70
2023-05-05T23:29:29.582Z,4.40
2023-05-05T23:31:58.625Z,2.13
2023-05-05T23:34:25.858Z,2.85
2023-05-05T23:36:52.244Z,2.75
2023-05-05T23:39:18.719Z,5.32
2023-05-05T23:41:45.133Z,3.17
2023-05-05T23:44:11.493Z,3.47
2023-05-05T23:46:37.987Z,2.38
2023-05-05T23:49:04.486Z,3.55
2023-05-05T23:51:30.950Z,4.60
2023-05-05T23:53:57.578Z,2.38
2023-05-05T23:56:24.366Z,2.40
2023-05-05T23:58:50.807Z,3.08
